Loon Lake, New York
Current Conditions -  °F | °C
As of 10:27 PM on Monday 22 Dec 2014 (Local Time) from KSLK Reporting Station
Scattered Clouds Scattered Clouds  
Wind Chill: 21°   Ceiling: Unl
Heat Index: 21°   Visibility: 7mi
Dew Point: 20°   Wind: 3mph
Humidity: 96%   Direction: 10°N
Pressure: 30.15"   Gusts: NA
Location:  44.5284°N, 74.0904°W
Report Text: KSLK 230327Z AUTO 01003KT 7SM SCT029 M06/M07 A3015 RMK AO2 T10611067 $
Loading
Personal Weather Stations






























Interactive Weather Map New forecast layout! Learn more

10-Day Weather Forecast

Advertisements
Track Severe Weather on mobile